createdAt,value
2019-04-06T00:01:48.876Z,66.70
2019-04-06T00:06:53.117Z,66.19
2019-04-06T00:11:57.385Z,65.43
2019-04-06T00:17:01.851Z,64.72
2019-04-06T00:22:06.090Z,64.68
2019-04-06T00:27:10.512Z,63.67
2019-04-06T00:32:22.165Z,62.80
2019-04-06T00:37:26.388Z,62.58
2019-04-06T00:42:30.612Z,62.05
2019-04-06T00:47:34.845Z,62.24
2019-04-06T00:52:39.131Z,61.88
2019-04-06T00:57:43.363Z,61.33
2019-04-06T01:02:47.600Z,60.83
2019-04-06T01:07:51.895Z,61.09
2019-04-06T01:12:56.129Z,60.10
2019-04-06T01:18:00.460Z,59.84
2019-04-06T01:23:04.643Z,59.15
2019-04-06T01:28:08.966Z,59.17
2019-04-06T01:33:13.182Z,58.87
2019-04-06T01:38:17.428Z,58.77
2019-04-06T01:43:21.667Z,58.56
2019-04-06T01:48:25.954Z,58.58
2019-04-06T01:53:30.200Z,59.03
2019-04-06T01:58:34.457Z,58.97
2019-04-06T02:03:38.705Z,58.98
2019-04-06T02:08:43.062Z,59.36
2019-04-06T02:13:47.406Z,59.65
2019-04-06T02:18:51.622Z,59.57
2019-04-06T02:23:55.889Z,59.69
2019-04-06T02:29:00.202Z,59.95
2019-04-06T02:34:24.293Z,59.58
2019-04-06T02:39:47.558Z,59.86
2019-04-06T02:44:51.859Z,60.06
2019-04-06T02:49:56.429Z,59.90
2019-04-06T02:55:00.701Z,60.30
2019-04-06T03:00:05.666Z,60.24
2019-04-06T03:05:10.371Z,60.68
2019-04-06T03:10:14.617Z,60.47
2019-04-06T03:15:18.853Z,60.58
2019-04-06T03:20:23.092Z,60.67
2019-04-06T03:25:27.341Z,60.74
2019-04-06T03:30:31.569Z,60.63
2019-04-06T03:35:35.803Z,60.33
2019-04-06T03:40:40.102Z,60.95
2019-04-06T03:45:44.364Z,61.19
2019-04-06T03:50:48.591Z,60.75
2019-04-06T03:55:52.840Z,60.68
2019-04-06T04:00:57.087Z,60.54
2019-04-06T04:06:01.520Z,60.65
2019-04-06T04:11:05.924Z,60.68
2019-04-06T04:16:10.159Z,60.71
2019-04-06T04:21:14.430Z,60.82
2019-04-06T04:26:18.682Z,60.69
2019-04-06T04:31:22.960Z,60.61
2019-04-06T04:36:27.223Z,60.25
2019-04-06T04:41:31.463Z,59.66
2019-04-06T04:46:35.715Z,59.33
2019-04-06T04:51:40.002Z,59.32
2019-04-06T04:56:44.195Z,58.92
2019-04-06T05:01:48.437Z,58.82
2019-04-06T05:06:52.685Z,58.63
2019-04-06T05:11:56.938Z,58.63
2019-04-06T05:17:01.173Z,58.35
2019-04-06T05:22:05.662Z,58.03
2019-04-06T05:27:09.900Z,57.86
2019-04-06T05:32:14.141Z,57.90
2019-04-06T05:37:18.409Z,57.15
2019-04-06T05:42:22.658Z,56.48
2019-04-06T05:47:26.918Z,56.13
2019-04-06T05:52:31.152Z,55.47
2019-04-06T05:57:37.277Z,55.20
2019-04-06T06:02:41.888Z,54.54
2019-04-06T06:07:46.235Z,54.68
2019-04-06T06:12:50.762Z,54.56
2019-04-06T06:17:55.088Z,54.25
2019-04-06T06:22:59.342Z,54.07
2019-04-06T06:28:13.821Z,53.69
2019-04-06T06:33:09.617Z,53.74
2019-04-06T06:38:13.999Z,53.38
2019-04-06T06:43:18.440Z,52.81
2019-04-06T06:48:22.702Z,52.49
2019-04-06T06:53:27.126Z,52.53
2019-04-06T06:58:31.368Z,52.09
2019-04-06T07:03:35.628Z,51.50
2019-04-06T07:08:40.030Z,50.99
2019-04-06T07:13:44.430Z,50.48
2019-04-06T07:18:48.713Z,49.79
2019-04-06T07:23:52.944Z,49.12
2019-04-06T07:28:57.211Z,48.63
2019-04-06T07:34:01.464Z,48.08
2019-04-06T07:39:07.424Z,48.26
2019-04-06T07:44:11.691Z,47.21
2019-04-06T07:49:15.936Z,46.88
2019-04-06T07:54:20.288Z,46.77
2019-04-06T07:59:24.530Z,46.66
2019-04-06T08:04:28.772Z,46.15
2019-04-06T08:09:33.293Z,45.87
2019-04-06T08:14:37.597Z,45.99
2019-04-06T08:19:41.969Z,45.40
2019-04-06T08:24:46.303Z,44.86
2019-04-06T08:29:50.559Z,45.18
2019-04-06T08:34:54.811Z,45.13
2019-04-06T08:39:59.100Z,44.65
2019-04-06T08:45:03.417Z,44.99
2019-04-06T08:50:08.207Z,44.59
2019-04-06T08:55:12.553Z,44.17
2019-04-06T09:00:17.186Z,43.74
2019-04-06T09:05:21.453Z,43.50
2019-04-06T09:10:25.712Z,43.12
2019-04-06T09:15:30.016Z,43.42
2019-04-06T09:20:34.298Z,43.72
2019-04-06T09:25:38.556Z,43.36
2019-04-06T09:30:42.853Z,42.59
2019-04-06T09:35:47.143Z,42.22
2019-04-06T09:40:51.978Z,41.79
2019-04-06T09:46:09.554Z,41.70
2019-04-06T09:51:32.342Z,41.22
2019-04-06T09:56:50.205Z,53.32
2019-04-06T10:02:10.722Z,41.77
2019-04-06T10:07:52.433Z,41.49
2019-04-06T10:13:14.538Z,36.69
2019-04-06T10:18:25.553Z,36.18
2019-04-06T10:23:57.954Z,35.76
2019-04-06T10:29:20.596Z,34.41
2019-04-06T10:34:43.071Z,34.10
2019-04-06T10:40:05.452Z,33.09
2019-04-06T10:45:34.808Z,32.23
2019-04-06T10:50:57.294Z,31.44
2019-04-06T10:56:11.571Z,30.68
2019-04-06T11:01:34.163Z,29.92
2019-04-06T11:07:00.537Z,28.66
2019-04-06T11:12:29.816Z,27.83
2019-04-06T11:17:52.210Z,27.00
2019-04-06T11:23:18.637Z,25.69
2019-04-06T11:28:32.101Z,24.98
2019-04-06T11:34:01.194Z,23.92
2019-04-06T11:39:25.922Z,23.55
2019-04-06T11:44:55.071Z,22.19
2019-04-06T11:50:30.609Z,22.13
2019-04-06T11:56:08.953Z,21.76
2019-04-06T12:01:33.815Z,21.37
2019-04-06T12:06:55.639Z,21.66
2019-04-06T12:12:17.875Z,21.49
2019-04-06T12:17:35.566Z,20.66
2019-04-06T12:23:10.874Z,21.41
2019-04-06T12:28:40.214Z,20.36
2019-04-06T12:33:53.666Z,19.93
2019-04-06T12:39:19.873Z,19.32
2019-04-06T12:44:42.030Z,20.15
2019-04-06T12:50:05.164Z,19.28
2019-04-06T12:55:37.609Z,19.44
2019-04-06T13:01:00.827Z,18.72
2019-04-06T13:06:33.036Z,20.15
2019-04-06T13:12:02.330Z,19.09
2019-04-06T13:17:15.198Z,22.11
2019-04-06T13:22:39.598Z,19.17
2019-04-06T13:28:05.820Z,20.41
2019-04-06T13:33:25.982Z,17.64
2019-04-06T13:38:39.927Z,17.15
2019-04-06T13:44:06.157Z,16.18
2019-04-06T13:49:18.272Z,16.33
2019-04-06T13:54:40.382Z,15.64
2019-04-06T13:59:52.228Z,15.32
2019-04-06T14:05:33.883Z,15.38
2019-04-06T14:11:00.176Z,15.33
2019-04-06T14:16:32.427Z,15.53
2019-04-06T14:21:48.644Z,16.14
2019-04-06T14:27:22.073Z,16.23
2019-04-06T14:32:38.672Z,15.81
2019-04-06T14:38:11.123Z,15.82
2019-04-06T14:43:33.566Z,16.05
2019-04-06T14:48:55.768Z,15.91
2019-04-06T14:54:18.631Z,16.16
2019-04-06T14:59:42.087Z,15.72
2019-04-06T15:05:05.670Z,17.32
2019-04-06T15:10:29.002Z,18.55
2019-04-06T15:15:51.353Z,19.84
2019-04-06T15:21:14.552Z,20.18
2019-04-06T15:26:40.896Z,21.21
2019-04-06T15:32:03.151Z,21.64
2019-04-06T15:37:15.665Z,22.05
2019-04-06T15:42:37.569Z,23.32
2019-04-06T15:48:02.111Z,25.68
2019-04-06T15:53:28.125Z,26.28
2019-04-06T15:58:42.553Z,26.60
2019-04-06T16:04:14.639Z,27.83
2019-04-06T16:09:37.550Z,27.56
2019-04-06T16:15:04.286Z,27.09
2019-04-06T16:20:28.890Z,26.87
2019-04-06T16:25:58.403Z,26.78
2019-04-06T16:31:20.412Z,27.11
2019-04-06T16:36:55.747Z,27.48
2019-04-06T16:42:18.024Z,28.50
2019-04-06T16:47:39.930Z,28.79
2019-04-06T16:53:09.306Z,29.13
2019-04-06T16:58:38.315Z,29.40
2019-04-06T17:04:13.565Z,29.66
2019-04-06T17:09:35.596Z,30.00
2019-04-06T17:14:58.913Z,30.06
2019-04-06T17:20:22.107Z,30.08
2019-04-06T17:25:38.329Z,30.71
2019-04-06T17:31:00.039Z,30.71
2019-04-06T17:36:32.609Z,30.74
2019-04-06T17:41:58.646Z,30.81
2019-04-06T17:47:15.740Z,31.28
2019-04-06T17:52:36.107Z,31.67
2019-04-06T17:57:49.432Z,31.93
2019-04-06T18:03:18.418Z,31.90
2019-04-06T18:08:32.722Z,32.46
2019-04-06T18:13:48.367Z,32.09
2019-04-06T18:18:52.863Z,32.46
2019-04-06T18:23:58.644Z,32.36
2019-04-06T18:29:03.056Z,32.22
2019-04-06T18:34:07.581Z,32.22
2019-04-06T18:39:11.857Z,32.64
2019-04-06T18:44:16.553Z,32.77
2019-04-06T18:49:20.869Z,32.72
2019-04-06T18:54:25.367Z,32.87
2019-04-06T18:59:29.728Z,33.40
2019-04-06T19:04:33.986Z,33.37
2019-04-06T19:09:38.307Z,33.62
2019-04-06T19:14:42.818Z,33.75
2019-04-06T19:19:47.088Z,35.53
2019-04-06T19:24:51.814Z,34.79
2019-04-06T19:29:56.818Z,38.42
2019-04-06T19:35:01.243Z,34.79
2019-04-06T19:40:07.147Z,35.18
2019-04-06T19:45:13.860Z,35.41
2019-04-06T19:50:18.703Z,35.81
2019-04-06T19:55:23.040Z,36.43
2019-04-06T20:00:27.353Z,36.81
2019-04-06T20:05:31.648Z,36.97
2019-04-06T20:10:35.908Z,36.86
2019-04-06T20:15:40.268Z,37.05
2019-04-06T20:20:44.520Z,37.08
2019-04-06T20:25:52.013Z,37.51
2019-04-06T20:30:57.135Z,38.18
2019-04-06T20:36:01.463Z,38.20
2019-04-06T20:41:05.741Z,37.99
2019-04-06T20:46:10.015Z,38.41
2019-04-06T20:51:14.694Z,38.38
2019-04-06T20:56:18.978Z,38.17
2019-04-06T21:01:23.323Z,38.56
2019-04-06T21:06:28.064Z,38.86
2019-04-06T21:11:32.467Z,38.79
2019-04-06T21:16:36.729Z,39.03
2019-04-06T21:21:40.976Z,39.17
2019-04-06T21:26:45.221Z,39.29
2019-04-06T21:31:49.810Z,39.36
2019-04-06T21:36:54.094Z,39.66
2019-04-06T21:41:58.384Z,39.99
2019-04-06T21:47:02.662Z,40.21
2019-04-06T21:52:07.534Z,40.45
2019-04-06T21:57:11.866Z,40.52
2019-04-06T22:02:16.438Z,40.66
2019-04-06T22:07:20.762Z,40.83
2019-04-06T22:12:25.074Z,41.37
2019-04-06T22:17:32.958Z,41.19
2019-04-06T22:22:36.862Z,41.15
2019-04-06T22:27:41.638Z,41.03
2019-04-06T22:32:45.979Z,41.63
2019-04-06T22:37:51.345Z,41.94
2019-04-06T22:42:56.082Z,42.29
2019-04-06T22:48:00.387Z,42.12
2019-04-06T22:53:05.539Z,42.25
2019-04-06T22:58:09.777Z,41.97
2019-04-06T23:03:28.549Z,42.07
2019-04-06T23:08:33.859Z,42.16
2019-04-06T23:13:38.257Z,42.35
2019-04-06T23:18:42.797Z,42.21
2019-04-06T23:23:47.445Z,42.59
2019-04-06T23:28:51.751Z,42.67
2019-04-06T23:33:56.002Z,42.75
2019-04-06T23:39:00.289Z,43.07
2019-04-06T23:44:04.739Z,43.10
2019-04-06T23:49:09.013Z,43.26
2019-04-06T23:54:13.609Z,43.53
2019-04-06T23:59:17.848Z,43.75
